sensor_id;sensor_type;location;lat;lon;timestamp;P1;durP1;ratioP1;P2;durP2;ratioP2
52057;SDS011;38063;53.210;6.504;2024-01-25T00:01:19;37.13;;;4.95;;
52057;SDS011;38063;53.210;6.504;2024-01-25T00:03:44;35.60;;;5.30;;
52057;SDS011;38063;53.210;6.504;2024-01-25T00:06:10;31.13;;;5.65;;
52057;SDS011;38063;53.210;6.504;2024-01-25T00:08:36;30.05;;;4.35;;
52057;SDS011;38063;53.210;6.504;2024-01-25T00:11:02;29.30;;;4.80;;
52057;SDS011;38063;53.210;6.504;2024-01-25T00:13:28;34.08;;;5.75;;
52057;SDS011;38063;53.210;6.504;2024-01-25T00:15:54;26.60;;;4.97;;
52057;SDS011;38063;53.210;6.504;2024-01-25T00:18:20;35.58;;;5.07;;
52057;SDS011;38063;53.210;6.504;2024-01-25T00:20:45;30.60;;;6.50;;
52057;SDS011;38063;53.210;6.504;2024-01-25T00:23:11;25.92;;;4.65;;
52057;SDS011;38063;53.210;6.504;2024-01-25T00:25:37;36.75;;;5.80;;
52057;SDS011;38063;53.210;6.504;2024-01-25T00:28:02;29.27;;;5.00;;
52057;SDS011;38063;53.210;6.504;2024-01-25T00:30:28;30.52;;;4.82;;
52057;SDS011;38063;53.210;6.504;2024-01-25T00:32:55;34.28;;;5.63;;
52057;SDS011;38063;53.210;6.504;2024-01-25T00:35:21;36.60;;;5.72;;
52057;SDS011;38063;53.210;6.504;2024-01-25T00:37:48;32.50;;;5.28;;
52057;SDS011;38063;53.210;6.504;2024-01-25T00:40:14;26.95;;;4.40;;
52057;SDS011;38063;53.210;6.504;2024-01-25T00:42:43;30.23;;;5.93;;
52057;SDS011;38063;53.210;6.504;2024-01-25T00:45:14;37.33;;;5.20;;
52057;SDS011;38063;53.210;6.504;2024-01-25T00:47:39;33.92;;;4.82;;
52057;SDS011;38063;53.210;6.504;2024-01-25T00:50:05;25.02;;;4.70;;
52057;SDS011;38063;53.210;6.504;2024-01-25T00:52:31;36.58;;;5.35;;
52057;SDS011;38063;53.210;6.504;2024-01-25T00:54:57;39.35;;;5.32;;
52057;SDS011;38063;53.210;6.504;2024-01-25T00:57:23;30.48;;;5.43;;
52057;SDS011;38063;53.210;6.504;2024-01-25T00:59:49;37.08;;;5.95;;
52057;SDS011;38063;53.210;6.504;2024-01-25T01:02:15;23.75;;;4.50;;
52057;SDS011;38063;53.210;6.504;2024-01-25T01:04:41;27.65;;;4.18;;
52057;SDS011;38063;53.210;6.504;2024-01-25T01:07:07;36.65;;;5.40;;
52057;SDS011;38063;53.210;6.504;2024-01-25T01:09:34;32.60;;;5.43;;
52057;SDS011;38063;53.210;6.504;2024-01-25T01:11:59;29.23;;;5.13;;
52057;SDS011;38063;53.210;6.504;2024-01-25T01:14:25;34.60;;;5.13;;
52057;SDS011;38063;53.210;6.504;2024-01-25T01:16:51;35.13;;;4.63;;
52057;SDS011;38063;53.210;6.504;2024-01-25T01:19:16;33.25;;;4.85;;
52057;SDS011;38063;53.210;6.504;2024-01-25T01:21:42;24.50;;;4.55;;
52057;SDS011;38063;53.210;6.504;2024-01-25T01:24:12;27.63;;;5.25;;
52057;SDS011;38063;53.210;6.504;2024-01-25T01:26:37;31.10;;;5.30;;
52057;SDS011;38063;53.210;6.504;2024-01-25T01:29:03;29.58;;;4.60;;
52057;SDS011;38063;53.210;6.504;2024-01-25T01:31:29;31.30;;;5.43;;
52057;SDS011;38063;53.210;6.504;2024-01-25T01:33:55;41.05;;;5.50;;
52057;SDS011;38063;53.210;6.504;2024-01-25T01:36:20;30.40;;;5.28;;
52057;SDS011;38063;53.210;6.504;2024-01-25T01:38:47;31.92;;;4.80;;
52057;SDS011;38063;53.210;6.504;2024-01-25T01:41:12;30.25;;;4.55;;
52057;SDS011;38063;53.210;6.504;2024-01-25T01:43:38;29.77;;;5.53;;
52057;SDS011;38063;53.210;6.504;2024-01-25T01:46:06;43.08;;;5.68;;
52057;SDS011;38063;53.210;6.504;2024-01-25T01:48:36;32.13;;;4.32;;
52057;SDS011;38063;53.210;6.504;2024-01-25T01:51:05;28.63;;;5.28;;
52057;SDS011;38063;53.210;6.504;2024-01-25T01:53:32;33.38;;;4.90;;
52057;SDS011;38063;53.210;6.504;2024-01-25T01:55:59;30.67;;;5.00;;
52057;SDS011;38063;53.210;6.504;2024-01-25T01:58:25;29.20;;;4.65;;
52057;SDS011;38063;53.210;6.504;2024-01-25T02:00:52;36.85;;;4.85;;
52057;SDS011;38063;53.210;6.504;2024-01-25T02:03:19;24.27;;;4.68;;
52057;SDS011;38063;53.210;6.504;2024-01-25T02:05:44;31.40;;;5.20;;
52057;SDS011;38063;53.210;6.504;2024-01-25T02:08:10;33.33;;;4.20;;
52057;SDS011;38063;53.210;6.504;2024-01-25T02:10:36;26.77;;;5.88;;
52057;SDS011;38063;53.210;6.504;2024-01-25T02:13:01;31.55;;;4.97;;
52057;SDS011;38063;53.210;6.504;2024-01-25T02:15:27;25.90;;;4.63;;
52057;SDS011;38063;53.210;6.504;2024-01-25T02:17:53;40.25;;;4.43;;
52057;SDS011;38063;53.210;6.504;2024-01-25T02:20:18;26.75;;;4.07;;
52057;SDS011;38063;53.210;6.504;2024-01-25T02:22:44;24.45;;;4.28;;
52057;SDS011;38063;53.210;6.504;2024-01-25T02:25:10;32.80;;;5.03;;
52057;SDS011;38063;53.210;6.504;2024-01-25T02:27:35;32.35;;;5.03;;
52057;SDS011;38063;53.210;6.504;2024-01-25T02:30:04;36.40;;;5.28;;
52057;SDS011;38063;53.210;6.504;2024-01-25T02:32:32;42.13;;;6.40;;
52057;SDS011;38063;53.210;6.504;2024-01-25T02:34:57;30.13;;;5.05;;
52057;SDS011;38063;53.210;6.504;2024-01-25T02:37:23;38.75;;;6.50;;
52057;SDS011;38063;53.210;6.504;2024-01-25T02:39:49;26.25;;;4.28;;
52057;SDS011;38063;53.210;6.504;2024-01-25T02:42:15;33.90;;;6.07;;
52057;SDS011;38063;53.210;6.504;2024-01-25T02:44:42;41.35;;;5.63;;
52057;SDS011;38063;53.210;6.504;2024-01-25T02:47:08;35.53;;;5.53;;
52057;SDS011;38063;53.210;6.504;2024-01-25T02:49:34;36.50;;;5.35;;
52057;SDS011;38063;53.210;6.504;2024-01-25T02:51:59;27.80;;;5.00;;
52057;SDS011;38063;53.210;6.504;2024-01-25T02:54:25;30.02;;;4.85;;
52057;SDS011;38063;53.210;6.504;2024-01-25T02:56:51;37.67;;;5.53;;
52057;SDS011;38063;53.210;6.504;2024-01-25T02:59:17;29.35;;;5.93;;
52057;SDS011;38063;53.210;6.504;2024-01-25T03:01:44;42.08;;;5.47;;
52057;SDS011;38063;53.210;6.504;2024-01-25T03:04:10;23.85;;;4.30;;
52057;SDS011;38063;53.210;6.504;2024-01-25T03:06:36;32.35;;;4.95;;
52057;SDS011;38063;53.210;6.504;2024-01-25T03:09:02;32.53;;;5.45;;
52057;SDS011;38063;53.210;6.504;2024-01-25T03:11:30;39.78;;;5.70;;
52057;SDS011;38063;53.210;6.504;2024-01-25T03:13:56;46.83;;;6.10;;
52057;SDS011;38063;53.210;6.504;2024-01-25T03:16:22;34.33;;;5.85;;
52057;SDS011;38063;53.210;6.504;2024-01-25T03:18:47;41.22;;;5.32;;
52057;SDS011;38063;53.210;6.504;2024-01-25T03:21:13;36.17;;;5.82;;
52057;SDS011;38063;53.210;6.504;2024-01-25T03:23:39;39.17;;;6.35;;
52057;SDS011;38063;53.210;6.504;2024-01-25T03:26:04;33.90;;;5.80;;
52057;SDS011;38063;53.210;6.504;2024-01-25T03:28:30;45.67;;;5.50;;
52057;SDS011;38063;53.210;6.504;2024-01-25T03:30:56;32.55;;;5.65;;
52057;SDS011;38063;53.210;6.504;2024-01-25T03:33:22;31.45;;;5.47;;
52057;SDS011;38063;53.210;6.504;2024-01-25T03:35:48;41.28;;;5.07;;
52057;SDS011;38063;53.210;6.504;2024-01-25T03:38:13;52.60;;;7.05;;
52057;SDS011;38063;53.210;6.504;2024-01-25T03:40:39;45.22;;;6.47;;
52057;SDS011;38063;53.210;6.504;2024-01-25T03:43:05;43.92;;;5.88;;
52057;SDS011;38063;53.210;6.504;2024-01-25T03:45:30;51.38;;;8.52;;
52057;SDS011;38063;53.210;6.504;2024-01-25T03:47:57;34.40;;;5.68;;
52057;SDS011;38063;53.210;6.504;2024-01-25T03:50:23;33.90;;;5.63;;
52057;SDS011;38063;53.210;6.504;2024-01-25T03:52:49;31.33;;;4.90;;
52057;SDS011;38063;53.210;6.504;2024-01-25T03:55:15;37.90;;;6.50;;
52057;SDS011;38063;53.210;6.504;2024-01-25T03:57:40;39.63;;;5.28;;
52057;SDS011;38063;53.210;6.504;2024-01-25T04:00:07;37.00;;;6.43;;
52057;SDS011;38063;53.210;6.504;2024-01-25T04:02:34;45.97;;;6.25;;
52057;SDS011;38063;53.210;6.504;2024-01-25T04:04:59;41.75;;;5.57;;
52057;SDS011;38063;53.210;6.504;2024-01-25T04:07:25;37.35;;;5.05;;
52057;SDS011;38063;53.210;6.504;2024-01-25T04:09:51;44.85;;;5.95;;
52057;SDS011;38063;53.210;6.504;2024-01-25T04:12:16;28.85;;;4.60;;
52057;SDS011;38063;53.210;6.504;2024-01-25T04:14:42;40.47;;;5.90;;
52057;SDS011;38063;53.210;6.504;2024-01-25T04:17:08;41.60;;;5.97;;
52057;SDS011;38063;53.210;6.504;2024-01-25T04:19:35;34.03;;;5.20;;
52057;SDS011;38063;53.210;6.504;2024-01-25T04:22:01;41.60;;;5.40;;
52057;SDS011;38063;53.210;6.504;2024-01-25T04:24:27;42.13;;;5.63;;
52057;SDS011;38063;53.210;6.504;2024-01-25T04:26:52;44.83;;;5.68;;
52057;SDS011;38063;53.210;6.504;2024-01-25T04:29:18;33.67;;;5.38;;
52057;SDS011;38063;53.210;6.504;2024-01-25T04:31:44;38.97;;;5.55;;
52057;SDS011;38063;53.210;6.504;2024-01-25T04:34:12;32.47;;;6.15;;
52057;SDS011;38063;53.210;6.504;2024-01-25T04:36:38;38.03;;;5.30;;
52057;SDS011;38063;53.210;6.504;2024-01-25T04:39:04;36.33;;;6.18;;
52057;SDS011;38063;53.210;6.504;2024-01-25T04:41:29;45.75;;;6.00;;
52057;SDS011;38063;53.210;6.504;2024-01-25T04:43:55;38.67;;;5.07;;
52057;SDS011;38063;53.210;6.504;2024-01-25T04:46:21;44.72;;;5.38;;
52057;SDS011;38063;53.210;6.504;2024-01-25T04:48:46;39.72;;;6.35;;
52057;SDS011;38063;53.210;6.504;2024-01-25T04:51:18;42.53;;;5.50;;
52057;SDS011;38063;53.210;6.504;2024-01-25T04:53:47;36.70;;;6.73;;
52057;SDS011;38063;53.210;6.504;2024-01-25T04:56:13;41.53;;;6.20;;
52057;SDS011;38063;53.210;6.504;2024-01-25T04:58:39;39.25;;;4.88;;
52057;SDS011;38063;53.210;6.504;2024-01-25T05:01:04;48.60;;;6.93;;
52057;SDS011;38063;53.210;6.504;2024-01-25T05:03:32;38.38;;;4.90;;
52057;SDS011;38063;53.210;6.504;2024-01-25T05:05:58;42.28;;;6.28;;
52057;SDS011;38063;53.210;6.504;2024-01-25T05:08:23;35.55;;;5.95;;
52057;SDS011;38063;53.210;6.504;2024-01-25T05:10:49;40.33;;;5.63;;
52057;SDS011;38063;53.210;6.504;2024-01-25T05:13:15;36.20;;;6.40;;
52057;SDS011;38063;53.210;6.504;2024-01-25T05:15:41;41.60;;;6.20;;
52057;SDS011;38063;53.210;6.504;2024-01-25T05:18:06;37.10;;;5.20;;
52057;SDS011;38063;53.210;6.504;2024-01-25T05:20:32;40.58;;;6.03;;
52057;SDS011;38063;53.210;6.504;2024-01-25T05:22:59;37.25;;;7.15;;
52057;SDS011;38063;53.210;6.504;2024-01-25T05:25:26;45.28;;;6.22;;
52057;SDS011;38063;53.210;6.504;2024-01-25T05:27:53;47.85;;;5.85;;
52057;SDS011;38063;53.210;6.504;2024-01-25T05:30:19;36.95;;;5.40;;
52057;SDS011;38063;53.210;6.504;2024-01-25T05:32:45;41.72;;;5.30;;
52057;SDS011;38063;53.210;6.504;2024-01-25T05:35:13;46.72;;;5.32;;
52057;SDS011;38063;53.210;6.504;2024-01-25T05:37:39;43.97;;;5.15;;
52057;SDS011;38063;53.210;6.504;2024-01-25T05:40:05;35.58;;;5.65;;
52057;SDS011;38063;53.210;6.504;2024-01-25T05:42:32;45.47;;;6.82;;
52057;SDS011;38063;53.210;6.504;2024-01-25T05:44:58;39.85;;;5.47;;
52057;SDS011;38063;53.210;6.504;2024-01-25T05:47:24;31.80;;;5.25;;
52057;SDS011;38063;53.210;6.504;2024-01-25T05:49:50;36.97;;;6.03;;
52057;SDS011;38063;53.210;6.504;2024-01-25T05:52:16;34.28;;;4.93;;
52057;SDS011;38063;53.210;6.504;2024-01-25T05:54:42;39.15;;;6.38;;
52057;SDS011;38063;53.210;6.504;2024-01-25T05:57:08;36.25;;;5.40;;
52057;SDS011;38063;53.210;6.504;2024-01-25T05:59:34;43.05;;;5.60;;
52057;SDS011;38063;53.210;6.504;2024-01-25T06:02:00;38.33;;;5.75;;
52057;SDS011;38063;53.210;6.504;2024-01-25T06:04:26;37.33;;;5.45;;
52057;SDS011;38063;53.210;6.504;2024-01-25T06:06:51;41.38;;;5.70;;
52057;SDS011;38063;53.210;6.504;2024-01-25T06:09:17;32.20;;;4.88;;
52057;SDS011;38063;53.210;6.504;2024-01-25T06:11:42;34.03;;;4.97;;
52057;SDS011;38063;53.210;6.504;2024-01-25T06:14:08;45.63;;;5.40;;
52057;SDS011;38063;53.210;6.504;2024-01-25T06:16:34;32.70;;;6.15;;
52057;SDS011;38063;53.210;6.504;2024-01-25T06:19:00;36.40;;;6.75;;
52057;SDS011;38063;53.210;6.504;2024-01-25T06:21:27;28.52;;;5.10;;
52057;SDS011;38063;53.210;6.504;2024-01-25T06:23:53;35.92;;;5.13;;
52057;SDS011;38063;53.210;6.504;2024-01-25T06:26:18;39.55;;;5.93;;
52057;SDS011;38063;53.210;6.504;2024-01-25T06:28:44;31.75;;;4.93;;
52057;SDS011;38063;53.210;6.504;2024-01-25T06:31:10;37.20;;;5.43;;
52057;SDS011;38063;53.210;6.504;2024-01-25T06:33:36;36.03;;;5.75;;
52057;SDS011;38063;53.210;6.504;2024-01-25T06:36:01;35.05;;;5.65;;
52057;SDS011;38063;53.210;6.504;2024-01-25T06:38:27;37.00;;;5.65;;
52057;SDS011;38063;53.210;6.504;2024-01-25T06:40:53;46.20;;;6.15;;
52057;SDS011;38063;53.210;6.504;2024-01-25T06:43:18;39.00;;;6.40;;
52057;SDS011;38063;53.210;6.504;2024-01-25T06:45:44;43.90;;;5.13;;
52057;SDS011;38063;53.210;6.504;2024-01-25T06:48:10;39.88;;;5.75;;
52057;SDS011;38063;53.210;6.504;2024-01-25T06:50:36;44.10;;;6.22;;
52057;SDS011;38063;53.210;6.504;2024-01-25T06:53:02;27.55;;;5.63;;
52057;SDS011;38063;53.210;6.504;2024-01-25T06:55:28;37.13;;;5.65;;
52057;SDS011;38063;53.210;6.504;2024-01-25T06:57:54;30.77;;;5.20;;
52057;SDS011;38063;53.210;6.504;2024-01-25T07:00:20;37.80;;;5.68;;
52057;SDS011;38063;53.210;6.504;2024-01-25T07:02:46;35.15;;;4.63;;
52057;SDS011;38063;53.210;6.504;2024-01-25T07:05:12;41.13;;;5.47;;
52057;SDS011;38063;53.210;6.504;2024-01-25T07:07:37;38.38;;;4.90;;
52057;SDS011;38063;53.210;6.504;2024-01-25T07:10:05;38.75;;;6.38;;
52057;SDS011;38063;53.210;6.504;2024-01-25T07:12:32;41.45;;;7.43;;
52057;SDS011;38063;53.210;6.504;2024-01-25T07:14:57;38.25;;;5.70;;
52057;SDS011;38063;53.210;6.504;2024-01-25T07:17:23;35.80;;;5.53;;
52057;SDS011;38063;53.210;6.504;2024-01-25T07:19:49;35.78;;;5.53;;
52057;SDS011;38063;53.210;6.504;2024-01-25T07:22:14;31.10;;;5.80;;
52057;SDS011;38063;53.210;6.504;2024-01-25T07:24:42;34.45;;;5.38;;
52057;SDS011;38063;53.210;6.504;2024-01-25T07:27:08;41.38;;;6.47;;
52057;SDS011;38063;53.210;6.504;2024-01-25T07:29:35;43.92;;;7.57;;
52057;SDS011;38063;53.210;6.504;2024-01-25T07:32:01;36.88;;;5.90;;
52057;SDS011;38063;53.210;6.504;2024-01-25T07:34:27;37.70;;;6.15;;
52057;SDS011;38063;53.210;6.504;2024-01-25T07:36:53;31.50;;;4.93;;
52057;SDS011;38063;53.210;6.504;2024-01-25T07:39:19;47.15;;;6.13;;
52057;SDS011;38063;53.210;6.504;2024-01-25T07:41:45;35.13;;;5.47;;
52057;SDS011;38063;53.210;6.504;2024-01-25T07:44:10;32.55;;;5.22;;
52057;SDS011;38063;53.210;6.504;2024-01-25T07:46:36;44.42;;;5.68;;
52057;SDS011;38063;53.210;6.504;2024-01-25T07:49:02;31.70;;;5.43;;
52057;SDS011;38063;53.210;6.504;2024-01-25T07:51:27;44.95;;;6.10;;
52057;SDS011;38063;53.210;6.504;2024-01-25T07:53:54;47.97;;;7.85;;
52057;SDS011;38063;53.210;6.504;2024-01-25T07:56:19;41.45;;;6.45;;
52057;SDS011;38063;53.210;6.504;2024-01-25T07:58:47;46.80;;;7.57;;
52057;SDS011;38063;53.210;6.504;2024-01-25T08:01:19;40.90;;;6.13;;
52057;SDS011;38063;53.210;6.504;2024-01-25T08:03:45;35.83;;;5.60;;
52057;SDS011;38063;53.210;6.504;2024-01-25T08:06:10;45.35;;;6.80;;
52057;SDS011;38063;53.210;6.504;2024-01-25T08:08:36;46.13;;;6.72;;
52057;SDS011;38063;53.210;6.504;2024-01-25T08:11:02;45.72;;;6.25;;
52057;SDS011;38063;53.210;6.504;2024-01-25T08:13:29;40.45;;;6.85;;
52057;SDS011;38063;53.210;6.504;2024-01-25T08:15:55;42.30;;;6.10;;
52057;SDS011;38063;53.210;6.504;2024-01-25T08:18:21;34.90;;;5.35;;
52057;SDS011;38063;53.210;6.504;2024-01-25T08:20:48;42.33;;;6.82;;
52057;SDS011;38063;53.210;6.504;2024-01-25T08:23:14;45.90;;;6.05;;
52057;SDS011;38063;53.210;6.504;2024-01-25T08:25:40;55.40;;;8.25;;
52057;SDS011;38063;53.210;6.504;2024-01-25T08:28:06;46.30;;;6.40;;
52057;SDS011;38063;53.210;6.504;2024-01-25T08:30:32;36.85;;;6.43;;
52057;SDS011;38063;53.210;6.504;2024-01-25T08:32:58;49.85;;;6.25;;
52057;SDS011;38063;53.210;6.504;2024-01-25T08:35:24;61.10;;;6.85;;
52057;SDS011;38063;53.210;6.504;2024-01-25T08:37:50;34.83;;;6.07;;
52057;SDS011;38063;53.210;6.504;2024-01-25T08:40:16;39.90;;;6.10;;
52057;SDS011;38063;53.210;6.504;2024-01-25T08:42:42;47.03;;;7.38;;
52057;SDS011;38063;53.210;6.504;2024-01-25T08:45:08;39.83;;;7.05;;
52057;SDS011;38063;53.210;6.504;2024-01-25T08:47:37;48.83;;;6.55;;
52057;SDS011;38063;53.210;6.504;2024-01-25T08:50:03;39.97;;;8.02;;
52057;SDS011;38063;53.210;6.504;2024-01-25T08:52:30;45.58;;;8.52;;
52057;SDS011;38063;53.210;6.504;2024-01-25T08:54:56;42.63;;;7.10;;
52057;SDS011;38063;53.210;6.504;2024-01-25T08:57:22;51.58;;;7.28;;
52057;SDS011;38063;53.210;6.504;2024-01-25T08:59:47;51.33;;;7.47;;
52057;SDS011;38063;53.210;6.504;2024-01-25T09:02:13;48.58;;;7.10;;
52057;SDS011;38063;53.210;6.504;2024-01-25T09:04:38;41.92;;;7.50;;
52057;SDS011;38063;53.210;6.504;2024-01-25T09:07:08;45.50;;;6.95;;
52057;SDS011;38063;53.210;6.504;2024-01-25T09:09:33;57.65;;;10.43;;
52057;SDS011;38063;53.210;6.504;2024-01-25T09:11:59;52.88;;;7.75;;
52057;SDS011;38063;53.210;6.504;2024-01-25T09:14:25;52.50;;;7.80;;
52057;SDS011;38063;53.210;6.504;2024-01-25T09:16:50;52.65;;;7.78;;
52057;SDS011;38063;53.210;6.504;2024-01-25T09:19:16;46.97;;;7.43;;
52057;SDS011;38063;53.210;6.504;2024-01-25T09:21:42;62.05;;;7.93;;
52057;SDS011;38063;53.210;6.504;2024-01-25T09:24:07;45.20;;;7.47;;
52057;SDS011;38063;53.210;6.504;2024-01-25T09:26:33;43.13;;;7.00;;
52057;SDS011;38063;53.210;6.504;2024-01-25T09:28:59;54.45;;;8.25;;
52057;SDS011;38063;53.210;6.504;2024-01-25T09:31:24;50.45;;;6.75;;
52057;SDS011;38063;53.210;6.504;2024-01-25T09:33:50;44.92;;;6.50;;
52057;SDS011;38063;53.210;6.504;2024-01-25T09:36:16;59.35;;;7.63;;
52057;SDS011;38063;53.210;6.504;2024-01-25T09:38:42;49.03;;;7.38;;
52057;SDS011;38063;53.210;6.504;2024-01-25T09:41:08;42.53;;;7.05;;
52057;SDS011;38063;53.210;6.504;2024-01-25T09:43:34;55.42;;;7.55;;
52057;SDS011;38063;53.210;6.504;2024-01-25T09:46:01;57.53;;;7.90;;
52057;SDS011;38063;53.210;6.504;2024-01-25T09:48:27;53.03;;;7.63;;
52057;SDS011;38063;53.210;6.504;2024-01-25T09:50:54;49.03;;;7.20;;
52057;SDS011;38063;53.210;6.504;2024-01-25T09:53:21;37.05;;;6.15;;
52057;SDS011;38063;53.210;6.504;2024-01-25T09:58:22;43.40;;;7.20;;
52057;SDS011;38063;53.210;6.504;2024-01-25T10:00:49;46.42;;;7.65;;
52057;SDS011;38063;53.210;6.504;2024-01-25T10:03:15;38.95;;;6.25;;
52057;SDS011;38063;53.210;6.504;2024-01-25T10:05:41;47.80;;;7.88;;
52057;SDS011;38063;53.210;6.504;2024-01-25T10:08:11;47.65;;;7.15;;
52057;SDS011;38063;53.210;6.504;2024-01-25T10:10:38;46.15;;;6.75;;
52057;SDS011;38063;53.210;6.504;2024-01-25T10:13:03;46.60;;;7.22;;
52057;SDS011;38063;53.210;6.504;2024-01-25T10:15:30;52.30;;;8.23;;
52057;SDS011;38063;53.210;6.504;2024-01-25T10:17:56;51.22;;;8.23;;
52057;SDS011;38063;53.210;6.504;2024-01-25T10:20:22;41.72;;;6.95;;
52057;SDS011;38063;53.210;6.504;2024-01-25T10:22:50;42.63;;;8.73;;
52057;SDS011;38063;53.210;6.504;2024-01-25T10:25:17;39.70;;;6.40;;
52057;SDS011;38063;53.210;6.504;2024-01-25T10:27:42;47.92;;;6.90;;
52057;SDS011;38063;53.210;6.504;2024-01-25T10:30:09;53.03;;;6.68;;
52057;SDS011;38063;53.210;6.504;2024-01-25T10:32:35;56.22;;;7.47;;
52057;SDS011;38063;53.210;6.504;2024-01-25T10:35:01;40.60;;;6.72;;
52057;SDS011;38063;53.210;6.504;2024-01-25T10:37:27;48.67;;;7.53;;
52057;SDS011;38063;53.210;6.504;2024-01-25T10:39:55;49.53;;;7.15;;
52057;SDS011;38063;53.210;6.504;2024-01-25T10:42:21;46.95;;;7.90;;
52057;SDS011;38063;53.210;6.504;2024-01-25T10:44:46;44.20;;;7.35;;
52057;SDS011;38063;53.210;6.504;2024-01-25T10:47:12;43.70;;;7.68;;
52057;SDS011;38063;53.210;6.504;2024-01-25T10:49:38;45.80;;;6.13;;
52057;SDS011;38063;53.210;6.504;2024-01-25T10:52:05;40.63;;;6.78;;
52057;SDS011;38063;53.210;6.504;2024-01-25T10:54:31;40.58;;;8.52;;
52057;SDS011;38063;53.210;6.504;2024-01-25T10:56:58;50.33;;;7.45;;
52057;SDS011;38063;53.210;6.504;2024-01-25T10:59:24;44.78;;;7.30;;
52057;SDS011;38063;53.210;6.504;2024-01-25T11:01:50;52.83;;;8.52;;
52057;SDS011;38063;53.210;6.504;2024-01-25T11:04:19;50.78;;;8.52;;
52057;SDS011;38063;53.210;6.504;2024-01-25T11:06:45;41.80;;;7.47;;
52057;SDS011;38063;53.210;6.504;2024-01-25T11:09:16;47.22;;;7.00;;
52057;SDS011;38063;53.210;6.504;2024-01-25T11:11:44;45.00;;;7.50;;
52057;SDS011;38063;53.210;6.504;2024-01-25T11:14:13;43.45;;;6.18;;
52057;SDS011;38063;53.210;6.504;2024-01-25T11:16:39;48.42;;;7.07;;
52057;SDS011;38063;53.210;6.504;2024-01-25T11:19:15;36.17;;;7.63;;
52057;SDS011;38063;53.210;6.504;2024-01-25T11:21:43;46.78;;;7.63;;
52057;SDS011;38063;53.210;6.504;2024-01-25T11:26:46;45.30;;;7.60;;
52057;SDS011;38063;53.210;6.504;2024-01-25T11:29:13;35.47;;;6.22;;
52057;SDS011;38063;53.210;6.504;2024-01-25T11:31:43;41.78;;;8.23;;
52057;SDS011;38063;53.210;6.504;2024-01-25T11:34:10;42.25;;;7.32;;
52057;SDS011;38063;53.210;6.504;2024-01-25T11:36:36;31.77;;;7.25;;
52057;SDS011;38063;53.210;6.504;2024-01-25T11:39:03;38.85;;;6.00;;
52057;SDS011;38063;53.210;6.504;2024-01-25T11:41:31;37.22;;;6.65;;
52057;SDS011;38063;53.210;6.504;2024-01-25T11:43:57;37.35;;;6.38;;
52057;SDS011;38063;53.210;6.504;2024-01-25T11:46:22;47.35;;;7.55;;
52057;SDS011;38063;53.210;6.504;2024-01-25T11:48:49;38.88;;;8.05;;
52057;SDS011;38063;53.210;6.504;2024-01-25T11:51:15;39.67;;;7.18;;
52057;SDS011;38063;53.210;6.504;2024-01-25T11:53:41;36.30;;;6.30;;
52057;SDS011;38063;53.210;6.504;2024-01-25T11:56:08;38.20;;;7.20;;
52057;SDS011;38063;53.210;6.504;2024-01-25T11:58:36;36.92;;;6.35;;
52057;SDS011;38063;53.210;6.504;2024-01-25T12:01:03;49.00;;;8.98;;
52057;SDS011;38063;53.210;6.504;2024-01-25T12:03:32;31.85;;;6.07;;
52057;SDS011;38063;53.210;6.504;2024-01-25T12:06:00;37.78;;;6.50;;
52057;SDS011;38063;53.210;6.504;2024-01-25T12:08:27;37.90;;;6.65;;
52057;SDS011;38063;53.210;6.504;2024-01-25T12:11:02;37.40;;;6.40;;
52057;SDS011;38063;53.210;6.504;2024-01-25T12:13:31;33.63;;;7.63;;
52057;SDS011;38063;53.210;6.504;2024-01-25T12:15:57;45.47;;;6.72;;
52057;SDS011;38063;53.210;6.504;2024-01-25T12:18:23;37.17;;;6.45;;
52057;SDS011;38063;53.210;6.504;2024-01-25T12:20:50;23.02;;;4.95;;
52057;SDS011;38063;53.210;6.504;2024-01-25T12:23:15;30.75;;;6.13;;
52057;SDS011;38063;53.210;6.504;2024-01-25T12:25:41;36.58;;;6.18;;
52057;SDS011;38063;53.210;6.504;2024-01-25T12:28:06;28.50;;;6.22;;
52057;SDS011;38063;53.210;6.504;2024-01-25T12:30:32;24.17;;;5.38;;
52057;SDS011;38063;53.210;6.504;2024-01-25T12:32:58;25.90;;;5.35;;
52057;SDS011;38063;53.210;6.504;2024-01-25T12:35:23;30.38;;;6.03;;
52057;SDS011;38063;53.210;6.504;2024-01-25T12:37:49;32.47;;;6.28;;
52057;SDS011;38063;53.210;6.504;2024-01-25T12:40:15;37.67;;;5.40;;
52057;SDS011;38063;53.210;6.504;2024-01-25T12:42:40;39.30;;;6.00;;
52057;SDS011;38063;53.210;6.504;2024-01-25T12:45:06;29.10;;;5.35;;
52057;SDS011;38063;53.210;6.504;2024-01-25T12:47:32;34.17;;;5.70;;
52057;SDS011;38063;53.210;6.504;2024-01-25T12:49:57;35.10;;;5.82;;
52057;SDS011;38063;53.210;6.504;2024-01-25T12:52:23;32.75;;;6.05;;
52057;SDS011;38063;53.210;6.504;2024-01-25T12:54:49;34.20;;;5.60;;
52057;SDS011;38063;53.210;6.504;2024-01-25T12:57:14;33.95;;;5.45;;
52057;SDS011;38063;53.210;6.504;2024-01-25T12:59:40;30.08;;;5.80;;
52057;SDS011;38063;53.210;6.504;2024-01-25T13:02:06;34.00;;;5.82;;
52057;SDS011;38063;53.210;6.504;2024-01-25T13:04:32;29.67;;;5.03;;
52057;SDS011;38063;53.210;6.504;2024-01-25T13:06:58;26.40;;;4.70;;
52057;SDS011;38063;53.210;6.504;2024-01-25T13:09:24;26.55;;;5.50;;
52057;SDS011;38063;53.210;6.504;2024-01-25T13:11:50;27.90;;;4.43;;
52057;SDS011;38063;53.210;6.504;2024-01-25T13:14:18;30.73;;;5.05;;
52057;SDS011;38063;53.210;6.504;2024-01-25T13:16:44;27.45;;;4.85;;
52057;SDS011;38063;53.210;6.504;2024-01-25T13:19:10;28.40;;;5.13;;
52057;SDS011;38063;53.210;6.504;2024-01-25T13:21:39;34.58;;;7.18;;
52057;SDS011;38063;53.210;6.504;2024-01-25T13:24:05;31.83;;;5.50;;
52057;SDS011;38063;53.210;6.504;2024-01-25T13:26:32;25.88;;;4.72;;
52057;SDS011;38063;53.210;6.504;2024-01-25T13:28:57;22.88;;;4.45;;
52057;SDS011;38063;53.210;6.504;2024-01-25T13:31:23;19.58;;;4.80;;
52057;SDS011;38063;53.210;6.504;2024-01-25T13:33:49;28.30;;;4.57;;
52057;SDS011;38063;53.210;6.504;2024-01-25T13:36:14;30.63;;;5.68;;
52057;SDS011;38063;53.210;6.504;2024-01-25T13:38:40;27.67;;;5.28;;
52057;SDS011;38063;53.210;6.504;2024-01-25T13:41:06;28.60;;;5.60;;
52057;SDS011;38063;53.210;6.504;2024-01-25T13:43:31;28.48;;;5.88;;
52057;SDS011;38063;53.210;6.504;2024-01-25T13:45:57;31.55;;;5.88;;
52057;SDS011;38063;53.210;6.504;2024-01-25T13:48:23;27.80;;;7.05;;
52057;SDS011;38063;53.210;6.504;2024-01-25T13:50:48;29.58;;;6.32;;
52057;SDS011;38063;53.210;6.504;2024-01-25T13:53:14;36.03;;;5.90;;
52057;SDS011;38063;53.210;6.504;2024-01-25T13:55:40;29.70;;;6.18;;
52057;SDS011;38063;53.210;6.504;2024-01-25T13:58:05;26.50;;;5.40;;
52057;SDS011;38063;53.210;6.504;2024-01-25T14:00:31;28.42;;;5.40;;
52057;SDS011;38063;53.210;6.504;2024-01-25T14:02:57;33.30;;;5.30;;
52057;SDS011;38063;53.210;6.504;2024-01-25T14:05:22;29.55;;;6.85;;
52057;SDS011;38063;53.210;6.504;2024-01-25T14:07:48;31.70;;;6.07;;
52057;SDS011;38063;53.210;6.504;2024-01-25T14:10:14;30.50;;;5.55;;
52057;SDS011;38063;53.210;6.504;2024-01-25T14:12:40;26.45;;;6.40;;
52057;SDS011;38063;53.210;6.504;2024-01-25T14:15:06;22.45;;;5.20;;
52057;SDS011;38063;53.210;6.504;2024-01-25T14:17:32;27.73;;;6.60;;
52057;SDS011;38063;53.210;6.504;2024-01-25T14:19:57;27.42;;;6.15;;
52057;SDS011;38063;53.210;6.504;2024-01-25T14:22:23;27.60;;;6.03;;
52057;SDS011;38063;53.210;6.504;2024-01-25T14:24:49;30.58;;;5.85;;
52057;SDS011;38063;53.210;6.504;2024-01-25T14:27:14;27.77;;;5.53;;
52057;SDS011;38063;53.210;6.504;2024-01-25T14:29:40;35.72;;;6.03;;
52057;SDS011;38063;53.210;6.504;2024-01-25T14:32:05;30.95;;;6.30;;